Terminal Aerodrome Forecast
Issued by NWS Caribou, ME

Home | Current Version | Previous Version | Text Only | Print | Product List | Glossary On
Versions: 1 2 3 4 5 6 7 8 9 10 11 12 13
000
FTUS41 KCAR 052321
TAFCAR
TAF
KCAR 052321Z 0600/0624 30010G20KT P6SM BKN090
      TEMPO 0600/0602 -SHRA
     FM060400 30008G15KT P6SM SKC
     FM061600 30015G28KT P6SM SKC=

USA.gov is the U.S. government's official web portal to all federal, state and local government web resources and services.